METAR stanice u blizini

 

LYBE - Beograd / Surčin, Srbija
Ažurirano: 07/08/2020 21:00
Slaba kiša, Showers, Few clouds
Slaba kiša, Showers, Few clouds
 Pravac vetra JI
Vetar: JI 11 km/h
Temperatura: 22°C
Tačka rose: 20°C
Vlažnost: 88%
Pritisak: 1016 hPa
Pregled: Slaba kiša, Showers
Oblaci: Few Clouds
Vidljivost: 10 km
Cloud details: Few Clouds 914 m
2020/08/07 19:00 LYBE 071900Z 14006KT 9999 -SHRA FEW030TCU 22/20 Q1016 NOSIG
LYBT - Beograd / Batajnica, Srbija
Ažurirano: 07/08/2020 21:00
Partly Cloudy
Partly Cloudy
 Pravac vetra ZSZ
Vetar: ZSZ 7 km/h
Temperatura: 22°C
Tačka rose: 19°C
Vlažnost: 83%
Pritisak: 1015 hPa
Oblaci: Partly Cloudy
Vidljivost: 10 km
Cloud details: Partly Cloudy 1219 m
2020/08/07 19:00 LYBT 071900Z 30004KT 250V010 9999 SCT040 22/19 Q1015 RETS NOSIG
LYVR - Vršac, Srbija
Ažurirano: 07/08/2020 21:00
Vedro
Vedro
 Pravac vetra J
Vetar: J 11 km/h
Temperatura: 25°C
Tačka rose: 18°C
Vlažnost: 65%
Pritisak: 1016 hPa
Pregled: Vedro
Vidljivost: greater than 10 km
2020/08/07 19:00 LYVR 071900Z AUTO 18006KT 160V230 CAVOK 25/18 Q1016
 
LYKV - Lađevci, Srbija
Ažurirano: 07/08/2020 21:00
Thunderstorm rain, Pretežno oblačno
Thunderstorm rain, Pretežno oblačno
 Pravac vetra IJI
Vetar: IJI 9 km/h, Maks.: 31 km/h
Temperatura: 19°C
Tačka rose: 19°C
Vlažnost: 100%
Pritisak: 1018 hPa
Pregled: Thunderstorm Rain
Oblaci: Mostly Cloudy
Vidljivost: 5 km
Cloud details: Mostly Cloudy 823 m
2020/08/07 19:00 LYKV 071900Z 11005G17KT 5000 TSRA BKN027CB 19/19 Q1018 NOSIG
LYNI - Niš, Srbija
Ažurirano: 07/08/2020 21:00
Partly Cloudy
Partly Cloudy
 Pravac vetra varies
Vetar: varies 6 km/h
Temperatura: 21°C
Tačka rose: 17°C
Vlažnost: 78%
Pritisak: 1016 hPa
Oblaci: Partly Cloudy
Vidljivost: 10 km
Cloud details: Partly Cloudy 1219 m
2020/08/07 19:00 LYNI 071900Z VRB03KT 9999 SCT040 21/17 Q1016 RETS NOSIG
BKPR - Priština, Srbija
Ažurirano: 07/08/2020 21:00
Nearby thunderstorm, Pretežno oblačno
Nearby thunderstorm, Pretežno oblačno
 Pravac vetra varies
Vetar: varies 2 km/h
Temperatura: 17°C
Tačka rose: 15°C
Vlažnost: 88%
Pritisak: 1016 hPa
Pregled: Nearby Thunderstorm
Oblaci: Mostly Cloudy
Vidljivost: 10 km
Cloud details: Few Clouds 914 m
Partly Cloudy 1219 m
Mostly Cloudy 2438 m
2020/08/07 19:00 BKPR 071900Z VRB01KT 9999 VCTS FEW030CB SCT040 BKN080 17/15 Q1016 TEMPO 5000 TSRA
 
LHPP - Pecs / Pogany, Hungary
Ažurirano: 07/08/2020 19:45
NOT Current
Vedro
Vedro
 Pravac vetra SSI
Vetar: SSI 11 km/h
Temperatura: 27°C
Heat Index: 28°C
Tačka rose: 17°C
Vlažnost: 54%
Pritisak: 1018 hPa
Pregled: Vedro
Vidljivost: greater than 10 km
2020/08/07 17:45 LHPP 071745Z 03006KT CAVOK 27/17 Q1018
LHUD - Szeged, Hungary
Ažurirano: 04/07/2019 01:45
NOT Current
Vedro
Vedro
 Pravac vetra S
Vetar: S 7 km/h
Temperatura: 18°C
Tačka rose: 13°C
Vlažnost: 73%
Pritisak: 1019 hPa
Pregled: Vedro
Vidljivost: greater than 10 km
2019/07/03 23:45 LHUD 032345Z 35004KT CAVOK 18/13 Q1019
LRTR - Timisoara, Romania
Ažurirano: 07/08/2020 21:00
Vedro
Vedro
 Pravac vetra SSI
Vetar: SSI 15 km/h
Temperatura: 26°C
Tačka rose: 18°C
Vlažnost: 61%
Pritisak: 1015 hPa
Pregled: Vedro
Vidljivost: greater than 10 km
2020/08/07 19:00 LRTR 071900Z 03008KT CAVOK 26/18 Q1015
 
LRCV - Craiova, Romania
Ažurirano: 07/08/2020 21:00
Vedro
Vedro
 Pravac vetra Z
Vetar: Z 24 km/h
Temperatura: 23°C
Tačka rose: 17°C
Vlažnost: 69%
Pritisak: 1015 hPa
Pregled: Vedro
Vidljivost: greater than 10 km
2020/08/07 19:00 LRCV 071900Z 26013KT CAVOK 23/17 Q1015
LBSF - Sofia, Bulgaria
Ažurirano: 07/08/2020 21:00
Few Clouds
Few Clouds
 Pravac vetra ZJZ
Vetar: ZJZ 13 km/h
Temperatura: 19°C
Tačka rose: 17°C
Vlažnost: 88%
Pritisak: 1015 hPa
Oblaci: Few Clouds
Vidljivost: 10 km
Cloud details: Few Clouds 2408 m
2020/08/07 19:00 LBSF 071900Z 25007KT 9999 FEW079 19/17 Q1015 NOSIG
LWSK - Skoplje, Makedonija
Ažurirano: 07/08/2020 21:00
Partly Cloudy
Partly Cloudy
 Pravac vetra SI
Vetar: SI 11 km/h
Temperatura: 20°C
Tačka rose: 17°C
Vlažnost: 83%
Pritisak: 1015 hPa
Oblaci: Partly Cloudy
Vidljivost: 10 km
Cloud details: Few Clouds 1829 m
Partly Cloudy 2743 m
2020/08/07 19:00 LWSK 071900Z 04006KT 9999 FEW060 SCT090 20/17 Q1015 NOSIG
 
LYPG - Podgorica, Crna Gora
Ažurirano: 07/08/2020 21:00
Few Clouds
Few Clouds
 Pravac vetra SSI
Vetar: SSI 11 km/h
Temperatura: 25°C
Tačka rose: 12°C
Vlažnost: 44%
Pritisak: 1013 hPa
Oblaci: Few Clouds
Vidljivost: 10 km
Cloud details: Few Clouds 3048 m
2020/08/07 19:00 LYPG 071900Z 02006KT 340V040 9999 FEW100 25/12 Q1013 NOSIG
LQSA - Sarajevo, Bosna i Hercegovina
Ažurirano: 07/08/2020 21:00
Mostly Cloudy
Mostly Cloudy
 Pravac vetra SZ
Vetar: SZ 11 km/h
Temperatura: 19°C
Tačka rose: 17°C
Vlažnost: 88%
Pritisak: 1018 hPa
Oblaci: Mostly Cloudy
Vidljivost: 10 km
Cloud details: Partly Cloudy 1219 m
Mostly Cloudy 1829 m
2020/08/07 19:00 LQSA 071900Z 32006KT 9999 SCT040 BKN060 19/17 Q1018 NOSIG
LDOS - Osijek, Hrvatksa
Ažurirano: 07/08/2020 21:00
Few Clouds
Few Clouds
 Pravac vetra ZSZ
Vetar: ZSZ 13 km/h
Temperatura: 22°C
Tačka rose: 20°C
Vlažnost: 88%
Pritisak: 1016 hPa
Oblaci: Few Clouds
Vidljivost: 10 km
Cloud details: Few Clouds 1219 m
2020/08/07 19:00 LDOS 071900Z 30007KT 9999 FEW040 22/20 Q1016